Ely, Minnesota
Current Conditions -  °F | °C
As of 6:13 PM on Friday 28 Nov 2014 (Local Time) from KELO Reporting Station
Overcast Overcast  
Wind Chill:   Ceiling: 1300
Heat Index: 18°   Visibility: 10mi
Dew Point: 12°   Wind: 6mph
Humidity: 79%   Direction: 90°E
Pressure: 29.83"   Gusts: NA
Location:  47.9°N, 91.87°W
Report Text: KELO 290013Z AUTO 09005KT 10SM OVC013 M08/M11 A2983 RMK AO2
Loading
Personal Weather Stations






























Interactive Weather Map New forecast layout! Learn more

10-Day Weather Forecast

Advertisements
Track Severe Weather on mobile